sensor_id;sensor_type;location;lat;lon;timestamp;P1;durP1;ratioP1;P2;durP2;ratioP2
54539;SDS011;40438;52.992;18.604;2024-03-02T00:01:09;56.85;;;21.67;;
54539;SDS011;40438;52.992;18.604;2024-03-02T00:03:36;60.85;;;21.90;;
54539;SDS011;40438;52.992;18.604;2024-03-02T00:06:02;62.28;;;23.55;;
54539;SDS011;40438;52.992;18.604;2024-03-02T00:08:28;57.45;;;22.75;;
54539;SDS011;40438;52.992;18.604;2024-03-02T00:10:56;61.90;;;22.98;;
54539;SDS011;40438;52.992;18.604;2024-03-02T00:13:23;50.25;;;20.65;;
54539;SDS011;40438;52.992;18.604;2024-03-02T00:15:51;59.42;;;20.63;;
54539;SDS011;40438;52.992;18.604;2024-03-02T00:18:18;49.90;;;20.33;;
54539;SDS011;40438;52.992;18.604;2024-03-02T00:20:45;54.78;;;20.63;;
54539;SDS011;40438;52.992;18.604;2024-03-02T00:23:13;49.53;;;19.65;;
54539;SDS011;40438;52.992;18.604;2024-03-02T00:25:42;57.15;;;21.55;;
54539;SDS011;40438;52.992;18.604;2024-03-02T00:28:13;52.80;;;20.95;;
54539;SDS011;40438;52.992;18.604;2024-03-02T00:30:46;52.63;;;19.83;;
54539;SDS011;40438;52.992;18.604;2024-03-02T00:33:20;55.50;;;19.90;;
54539;SDS011;40438;52.992;18.604;2024-03-02T00:35:47;55.45;;;20.48;;
54539;SDS011;40438;52.992;18.604;2024-03-02T00:38:12;54.95;;;18.55;;
54539;SDS011;40438;52.992;18.604;2024-03-02T00:40:40;53.53;;;20.27;;
54539;SDS011;40438;52.992;18.604;2024-03-02T00:43:05;54.50;;;19.58;;
54539;SDS011;40438;52.992;18.604;2024-03-02T00:45:33;48.72;;;18.20;;
54539;SDS011;40438;52.992;18.604;2024-03-02T00:48:00;47.33;;;17.52;;
54539;SDS011;40438;52.992;18.604;2024-03-02T00:50:26;57.60;;;18.50;;
54539;SDS011;40438;52.992;18.604;2024-03-02T00:52:52;52.38;;;19.65;;
54539;SDS011;40438;52.992;18.604;2024-03-02T00:55:18;47.63;;;17.75;;
54539;SDS011;40438;52.992;18.604;2024-03-02T00:57:44;46.65;;;19.20;;
54539;SDS011;40438;52.992;18.604;2024-03-02T01:00:10;49.83;;;19.17;;
54539;SDS011;40438;52.992;18.604;2024-03-02T01:02:37;40.42;;;16.70;;
54539;SDS011;40438;52.992;18.604;2024-03-02T01:05:04;43.03;;;17.33;;
54539;SDS011;40438;52.992;18.604;2024-03-02T01:07:30;44.30;;;16.38;;
54539;SDS011;40438;52.992;18.604;2024-03-02T01:09:56;45.20;;;17.38;;
54539;SDS011;40438;52.992;18.604;2024-03-02T01:12:22;46.92;;;17.40;;
54539;SDS011;40438;52.992;18.604;2024-03-02T01:14:47;44.80;;;17.27;;
54539;SDS011;40438;52.992;18.604;2024-03-02T01:17:13;41.25;;;16.27;;
54539;SDS011;40438;52.992;18.604;2024-03-02T01:19:39;42.55;;;16.30;;
54539;SDS011;40438;52.992;18.604;2024-03-02T01:22:08;44.55;;;16.88;;
54539;SDS011;40438;52.992;18.604;2024-03-02T01:24:34;39.85;;;15.90;;
54539;SDS011;40438;52.992;18.604;2024-03-02T01:27:00;43.90;;;16.92;;
54539;SDS011;40438;52.992;18.604;2024-03-02T01:29:25;41.95;;;16.92;;
54539;SDS011;40438;52.992;18.604;2024-03-02T01:31:51;49.90;;;16.67;;
54539;SDS011;40438;52.992;18.604;2024-03-02T01:34:17;39.08;;;15.75;;
54539;SDS011;40438;52.992;18.604;2024-03-02T01:36:42;42.50;;;16.70;;
54539;SDS011;40438;52.992;18.604;2024-03-02T01:39:10;35.72;;;14.93;;
54539;SDS011;40438;52.992;18.604;2024-03-02T01:41:35;40.08;;;16.52;;
54539;SDS011;40438;52.992;18.604;2024-03-02T01:44:02;36.63;;;15.48;;
54539;SDS011;40438;52.992;18.604;2024-03-02T01:46:27;41.25;;;17.15;;
54539;SDS011;40438;52.992;18.604;2024-03-02T01:48:53;43.15;;;15.85;;
54539;SDS011;40438;52.992;18.604;2024-03-02T01:51:19;39.85;;;15.45;;
54539;SDS011;40438;52.992;18.604;2024-03-02T01:53:45;37.08;;;15.38;;
54539;SDS011;40438;52.992;18.604;2024-03-02T01:56:12;33.92;;;14.77;;
54539;SDS011;40438;52.992;18.604;2024-03-02T01:58:37;39.47;;;16.25;;
54539;SDS011;40438;52.992;18.604;2024-03-02T02:01:03;33.25;;;14.77;;
54539;SDS011;40438;52.992;18.604;2024-03-02T02:03:29;39.88;;;17.67;;
54539;SDS011;40438;52.992;18.604;2024-03-02T02:05:55;41.38;;;16.00;;
54539;SDS011;40438;52.992;18.604;2024-03-02T02:08:21;37.97;;;16.27;;
54539;SDS011;40438;52.992;18.604;2024-03-02T02:10:47;43.53;;;16.38;;
54539;SDS011;40438;52.992;18.604;2024-03-02T02:13:14;42.30;;;14.70;;
54539;SDS011;40438;52.992;18.604;2024-03-02T02:15:40;38.38;;;15.73;;
54539;SDS011;40438;52.992;18.604;2024-03-02T02:18:06;38.65;;;14.82;;
54539;SDS011;40438;52.992;18.604;2024-03-02T02:20:31;38.67;;;13.15;;
54539;SDS011;40438;52.992;18.604;2024-03-02T02:22:59;36.75;;;15.18;;
54539;SDS011;40438;52.992;18.604;2024-03-02T02:25:25;37.58;;;15.10;;
54539;SDS011;40438;52.992;18.604;2024-03-02T02:27:52;37.78;;;14.90;;
54539;SDS011;40438;52.992;18.604;2024-03-02T02:30:21;40.83;;;13.82;;
54539;SDS011;40438;52.992;18.604;2024-03-02T02:32:47;36.33;;;14.55;;
54539;SDS011;40438;52.992;18.604;2024-03-02T02:35:13;35.15;;;15.07;;
54539;SDS011;40438;52.992;18.604;2024-03-02T02:37:39;33.95;;;14.75;;
54539;SDS011;40438;52.992;18.604;2024-03-02T02:40:07;32.78;;;13.80;;
54539;SDS011;40438;52.992;18.604;2024-03-02T02:42:33;36.78;;;15.00;;
54539;SDS011;40438;52.992;18.604;2024-03-02T02:44:59;31.50;;;13.52;;
54539;SDS011;40438;52.992;18.604;2024-03-02T02:47:25;28.48;;;12.50;;
54539;SDS011;40438;52.992;18.604;2024-03-02T02:49:51;30.38;;;13.95;;
54539;SDS011;40438;52.992;18.604;2024-03-02T02:52:16;33.20;;;14.65;;
54539;SDS011;40438;52.992;18.604;2024-03-02T02:54:42;36.00;;;14.85;;
54539;SDS011;40438;52.992;18.604;2024-03-02T02:57:09;38.28;;;13.00;;
54539;SDS011;40438;52.992;18.604;2024-03-02T02:59:35;35.25;;;14.80;;
54539;SDS011;40438;52.992;18.604;2024-03-02T03:02:01;30.42;;;13.18;;
54539;SDS011;40438;52.992;18.604;2024-03-02T03:04:27;32.50;;;13.23;;
54539;SDS011;40438;52.992;18.604;2024-03-02T03:06:52;26.55;;;12.18;;
54539;SDS011;40438;52.992;18.604;2024-03-02T03:09:18;36.88;;;14.32;;
54539;SDS011;40438;52.992;18.604;2024-03-02T03:11:44;34.45;;;13.88;;
54539;SDS011;40438;52.992;18.604;2024-03-02T03:14:11;31.40;;;13.75;;
54539;SDS011;40438;52.992;18.604;2024-03-02T03:16:37;26.60;;;13.07;;
54539;SDS011;40438;52.992;18.604;2024-03-02T03:19:02;36.28;;;13.95;;
54539;SDS011;40438;52.992;18.604;2024-03-02T03:21:28;34.00;;;14.00;;
54539;SDS011;40438;52.992;18.604;2024-03-02T03:23:55;28.55;;;13.55;;
54539;SDS011;40438;52.992;18.604;2024-03-02T03:26:21;35.80;;;13.55;;
54539;SDS011;40438;52.992;18.604;2024-03-02T03:28:47;30.98;;;14.15;;
54539;SDS011;40438;52.992;18.604;2024-03-02T03:31:14;33.22;;;14.07;;
54539;SDS011;40438;52.992;18.604;2024-03-02T03:33:40;33.60;;;13.43;;
54539;SDS011;40438;52.992;18.604;2024-03-02T03:36:05;30.92;;;13.27;;
54539;SDS011;40438;52.992;18.604;2024-03-02T03:38:31;31.98;;;13.90;;
54539;SDS011;40438;52.992;18.604;2024-03-02T03:40:57;33.22;;;13.98;;
54539;SDS011;40438;52.992;18.604;2024-03-02T03:43:23;32.28;;;13.40;;
54539;SDS011;40438;52.992;18.604;2024-03-02T03:45:49;34.45;;;14.60;;
54539;SDS011;40438;52.992;18.604;2024-03-02T03:48:16;36.75;;;14.30;;
54539;SDS011;40438;52.992;18.604;2024-03-02T03:50:42;34.72;;;15.27;;
54539;SDS011;40438;52.992;18.604;2024-03-02T03:53:07;33.28;;;12.93;;
54539;SDS011;40438;52.992;18.604;2024-03-02T03:55:33;29.50;;;14.18;;
54539;SDS011;40438;52.992;18.604;2024-03-02T03:57:59;29.63;;;13.68;;
54539;SDS011;40438;52.992;18.604;2024-03-02T04:00:24;34.83;;;13.98;;
54539;SDS011;40438;52.992;18.604;2024-03-02T04:02:50;33.83;;;14.15;;
54539;SDS011;40438;52.992;18.604;2024-03-02T04:05:17;32.25;;;14.20;;
54539;SDS011;40438;52.992;18.604;2024-03-02T04:07:43;30.55;;;13.05;;
54539;SDS011;40438;52.992;18.604;2024-03-02T04:10:09;31.27;;;13.85;;
54539;SDS011;40438;52.992;18.604;2024-03-02T04:12:35;29.85;;;13.00;;
54539;SDS011;40438;52.992;18.604;2024-03-02T04:15:02;29.17;;;12.40;;
54539;SDS011;40438;52.992;18.604;2024-03-02T04:17:31;32.60;;;13.65;;
54539;SDS011;40438;52.992;18.604;2024-03-02T04:19:57;29.33;;;13.40;;
54539;SDS011;40438;52.992;18.604;2024-03-02T04:22:24;32.42;;;14.10;;
54539;SDS011;40438;52.992;18.604;2024-03-02T04:24:51;37.00;;;14.77;;
54539;SDS011;40438;52.992;18.604;2024-03-02T04:27:17;33.22;;;14.65;;
54539;SDS011;40438;52.992;18.604;2024-03-02T04:29:42;32.42;;;13.93;;
54539;SDS011;40438;52.992;18.604;2024-03-02T04:32:08;30.40;;;13.65;;
54539;SDS011;40438;52.992;18.604;2024-03-02T04:34:34;29.02;;;13.90;;
54539;SDS011;40438;52.992;18.604;2024-03-02T04:37:00;31.75;;;13.75;;
54539;SDS011;40438;52.992;18.604;2024-03-02T04:39:27;34.35;;;14.25;;
54539;SDS011;40438;52.992;18.604;2024-03-02T04:41:53;33.40;;;13.85;;
54539;SDS011;40438;52.992;18.604;2024-03-02T04:44:18;36.53;;;14.90;;
54539;SDS011;40438;52.992;18.604;2024-03-02T04:46:44;32.25;;;14.27;;
54539;SDS011;40438;52.992;18.604;2024-03-02T04:49:10;31.42;;;14.05;;
54539;SDS011;40438;52.992;18.604;2024-03-02T04:51:36;34.05;;;13.32;;
54539;SDS011;40438;52.992;18.604;2024-03-02T04:54:01;37.03;;;14.75;;
54539;SDS011;40438;52.992;18.604;2024-03-02T04:56:29;33.72;;;14.73;;
54539;SDS011;40438;52.992;18.604;2024-03-02T04:58:54;37.55;;;15.18;;
54539;SDS011;40438;52.992;18.604;2024-03-02T05:01:20;34.92;;;14.07;;
54539;SDS011;40438;52.992;18.604;2024-03-02T05:03:46;39.03;;;14.90;;
54539;SDS011;40438;52.992;18.604;2024-03-02T05:06:11;32.83;;;13.98;;
54539;SDS011;40438;52.992;18.604;2024-03-02T05:08:37;30.88;;;14.02;;
54539;SDS011;40438;52.992;18.604;2024-03-02T05:11:03;36.95;;;14.73;;
54539;SDS011;40438;52.992;18.604;2024-03-02T05:13:30;38.25;;;15.45;;
54539;SDS011;40438;52.992;18.604;2024-03-02T05:15:56;35.83;;;15.40;;
54539;SDS011;40438;52.992;18.604;2024-03-02T05:18:21;35.55;;;15.23;;
54539;SDS011;40438;52.992;18.604;2024-03-02T05:20:47;35.80;;;14.48;;
54539;SDS011;40438;52.992;18.604;2024-03-02T05:23:13;35.75;;;15.93;;
54539;SDS011;40438;52.992;18.604;2024-03-02T05:25:39;39.30;;;15.57;;
54539;SDS011;40438;52.992;18.604;2024-03-02T05:28:05;37.53;;;14.85;;
54539;SDS011;40438;52.992;18.604;2024-03-02T05:30:32;38.13;;;15.55;;
54539;SDS011;40438;52.992;18.604;2024-03-02T05:32:57;40.00;;;14.65;;
54539;SDS011;40438;52.992;18.604;2024-03-02T05:35:23;36.72;;;14.85;;
54539;SDS011;40438;52.992;18.604;2024-03-02T05:37:49;36.85;;;16.10;;
54539;SDS011;40438;52.992;18.604;2024-03-02T05:40:15;37.03;;;14.63;;
54539;SDS011;40438;52.992;18.604;2024-03-02T05:42:40;36.03;;;15.48;;
54539;SDS011;40438;52.992;18.604;2024-03-02T05:45:06;34.22;;;14.93;;
54539;SDS011;40438;52.992;18.604;2024-03-02T05:47:34;38.40;;;15.55;;
54539;SDS011;40438;52.992;18.604;2024-03-02T05:50:00;39.20;;;15.60;;
54539;SDS011;40438;52.992;18.604;2024-03-02T05:52:26;38.15;;;14.73;;
54539;SDS011;40438;52.992;18.604;2024-03-02T05:54:51;38.17;;;15.23;;
54539;SDS011;40438;52.992;18.604;2024-03-02T05:57:17;37.90;;;15.13;;
54539;SDS011;40438;52.992;18.604;2024-03-02T05:59:43;41.28;;;15.23;;
54539;SDS011;40438;52.992;18.604;2024-03-02T06:02:08;35.67;;;14.35;;
54539;SDS011;40438;52.992;18.604;2024-03-02T06:04:36;41.25;;;16.40;;
54539;SDS011;40438;52.992;18.604;2024-03-02T06:07:02;35.33;;;14.75;;
54539;SDS011;40438;52.992;18.604;2024-03-02T06:09:27;35.80;;;15.07;;
54539;SDS011;40438;52.992;18.604;2024-03-02T06:11:53;46.92;;;15.55;;
54539;SDS011;40438;52.992;18.604;2024-03-02T06:14:19;36.95;;;15.95;;
54539;SDS011;40438;52.992;18.604;2024-03-02T06:16:45;40.85;;;16.65;;
54539;SDS011;40438;52.992;18.604;2024-03-02T06:19:10;40.47;;;15.75;;
54539;SDS011;40438;52.992;18.604;2024-03-02T06:21:37;40.55;;;15.95;;
54539;SDS011;40438;52.992;18.604;2024-03-02T06:24:03;37.00;;;15.73;;
54539;SDS011;40438;52.992;18.604;2024-03-02T06:26:29;33.42;;;15.57;;
54539;SDS011;40438;52.992;18.604;2024-03-02T06:28:55;39.75;;;15.50;;
54539;SDS011;40438;52.992;18.604;2024-03-02T06:31:21;42.08;;;16.33;;
54539;SDS011;40438;52.992;18.604;2024-03-02T06:33:47;37.80;;;16.17;;
54539;SDS011;40438;52.992;18.604;2024-03-02T06:36:12;40.78;;;15.93;;
54539;SDS011;40438;52.992;18.604;2024-03-02T06:38:39;40.40;;;16.55;;
54539;SDS011;40438;52.992;18.604;2024-03-02T06:41:05;35.10;;;14.88;;
54539;SDS011;40438;52.992;18.604;2024-03-02T06:43:31;39.35;;;15.85;;
54539;SDS011;40438;52.992;18.604;2024-03-02T06:45:57;39.03;;;15.57;;
54539;SDS011;40438;52.992;18.604;2024-03-02T06:48:22;36.80;;;16.02;;
54539;SDS011;40438;52.992;18.604;2024-03-02T06:50:48;40.63;;;17.02;;
54539;SDS011;40438;52.992;18.604;2024-03-02T06:53:15;37.42;;;15.48;;
54539;SDS011;40438;52.992;18.604;2024-03-02T06:55:42;36.70;;;15.80;;
54539;SDS011;40438;52.992;18.604;2024-03-02T06:58:08;38.38;;;15.80;;
54539;SDS011;40438;52.992;18.604;2024-03-02T07:00:34;38.15;;;16.38;;
54539;SDS011;40438;52.992;18.604;2024-03-02T07:03:00;36.88;;;15.23;;
54539;SDS011;40438;52.992;18.604;2024-03-02T07:05:25;37.00;;;15.93;;
54539;SDS011;40438;52.992;18.604;2024-03-02T07:07:51;40.25;;;16.85;;
54539;SDS011;40438;52.992;18.604;2024-03-02T07:10:17;40.47;;;17.55;;
54539;SDS011;40438;52.992;18.604;2024-03-02T07:12:45;34.85;;;16.20;;
54539;SDS011;40438;52.992;18.604;2024-03-02T07:15:11;36.90;;;15.85;;
54539;SDS011;40438;52.992;18.604;2024-03-02T07:17:37;39.25;;;14.98;;
54539;SDS011;40438;52.992;18.604;2024-03-02T07:20:03;33.55;;;15.25;;
54539;SDS011;40438;52.992;18.604;2024-03-02T07:22:29;34.20;;;14.63;;
54539;SDS011;40438;52.992;18.604;2024-03-02T07:24:55;40.50;;;16.45;;
54539;SDS011;40438;52.992;18.604;2024-03-02T07:27:21;38.03;;;16.17;;
54539;SDS011;40438;52.992;18.604;2024-03-02T07:29:48;41.78;;;16.95;;
54539;SDS011;40438;52.992;18.604;2024-03-02T07:32:14;38.58;;;14.45;;
54539;SDS011;40438;52.992;18.604;2024-03-02T07:34:40;41.75;;;16.35;;
54539;SDS011;40438;52.992;18.604;2024-03-02T07:37:05;40.28;;;15.63;;
54539;SDS011;40438;52.992;18.604;2024-03-02T07:39:31;42.15;;;15.73;;
54539;SDS011;40438;52.992;18.604;2024-03-02T07:41:57;35.00;;;15.73;;
54539;SDS011;40438;52.992;18.604;2024-03-02T07:44:23;45.15;;;18.20;;
54539;SDS011;40438;52.992;18.604;2024-03-02T07:46:51;40.92;;;16.05;;
54539;SDS011;40438;52.992;18.604;2024-03-02T07:49:16;39.97;;;16.75;;
54539;SDS011;40438;52.992;18.604;2024-03-02T07:51:43;37.35;;;15.90;;
54539;SDS011;40438;52.992;18.604;2024-03-02T07:54:08;35.75;;;16.38;;
54539;SDS011;40438;52.992;18.604;2024-03-02T07:56:34;36.67;;;15.50;;
54539;SDS011;40438;52.992;18.604;2024-03-02T07:59:00;39.60;;;16.30;;
54539;SDS011;40438;52.992;18.604;2024-03-02T08:01:26;36.65;;;14.95;;
54539;SDS011;40438;52.992;18.604;2024-03-02T08:03:54;35.78;;;16.75;;
54539;SDS011;40438;52.992;18.604;2024-03-02T08:06:19;39.38;;;14.93;;
54539;SDS011;40438;52.992;18.604;2024-03-02T08:08:45;34.78;;;14.82;;
54539;SDS011;40438;52.992;18.604;2024-03-02T08:11:11;39.75;;;15.40;;
54539;SDS011;40438;52.992;18.604;2024-03-02T08:13:37;36.30;;;16.02;;
54539;SDS011;40438;52.992;18.604;2024-03-02T08:16:03;36.90;;;15.57;;
54539;SDS011;40438;52.992;18.604;2024-03-02T08:18:30;34.03;;;16.15;;
54539;SDS011;40438;52.992;18.604;2024-03-02T08:20:57;41.17;;;16.50;;
54539;SDS011;40438;52.992;18.604;2024-03-02T08:23:23;40.35;;;16.95;;
54539;SDS011;40438;52.992;18.604;2024-03-02T08:25:48;37.20;;;15.20;;
54539;SDS011;40438;52.992;18.604;2024-03-02T08:28:14;33.35;;;15.48;;
54539;SDS011;40438;52.992;18.604;2024-03-02T08:30:40;35.25;;;14.88;;
54539;SDS011;40438;52.992;18.604;2024-03-02T08:33:06;42.03;;;16.30;;
54539;SDS011;40438;52.992;18.604;2024-03-02T08:35:32;36.72;;;15.25;;
54539;SDS011;40438;52.992;18.604;2024-03-02T08:37:59;41.72;;;14.98;;
54539;SDS011;40438;52.992;18.604;2024-03-02T08:40:25;38.42;;;15.27;;
54539;SDS011;40438;52.992;18.604;2024-03-02T08:42:50;35.38;;;15.32;;
54539;SDS011;40438;52.992;18.604;2024-03-02T08:45:16;32.92;;;15.10;;
54539;SDS011;40438;52.992;18.604;2024-03-02T08:47:42;37.78;;;16.17;;
54539;SDS011;40438;52.992;18.604;2024-03-02T08:50:08;29.00;;;14.43;;
54539;SDS011;40438;52.992;18.604;2024-03-02T08:52:34;35.95;;;15.50;;
54539;SDS011;40438;52.992;18.604;2024-03-02T08:55:01;40.17;;;15.05;;
54539;SDS011;40438;52.992;18.604;2024-03-02T08:57:27;36.20;;;15.18;;
54539;SDS011;40438;52.992;18.604;2024-03-02T08:59:53;41.08;;;16.80;;
54539;SDS011;40438;52.992;18.604;2024-03-02T09:02:19;37.85;;;15.30;;
54539;SDS011;40438;52.992;18.604;2024-03-02T09:04:44;38.13;;;15.43;;
54539;SDS011;40438;52.992;18.604;2024-03-02T09:07:10;36.45;;;15.10;;
54539;SDS011;40438;52.992;18.604;2024-03-02T09:09:36;34.30;;;14.77;;
54539;SDS011;40438;52.992;18.604;2024-03-02T09:12:03;30.73;;;15.48;;
54539;SDS011;40438;52.992;18.604;2024-03-02T09:14:30;31.77;;;15.65;;
54539;SDS011;40438;52.992;18.604;2024-03-02T09:16:55;35.65;;;15.30;;
54539;SDS011;40438;52.992;18.604;2024-03-02T09:19:21;39.13;;;16.38;;
54539;SDS011;40438;52.992;18.604;2024-03-02T09:21:47;37.90;;;16.10;;
54539;SDS011;40438;52.992;18.604;2024-03-02T09:24:13;35.83;;;15.35;;
54539;SDS011;40438;52.992;18.604;2024-03-02T09:26:38;31.55;;;14.98;;
54539;SDS011;40438;52.992;18.604;2024-03-02T09:29:06;34.28;;;15.63;;
54539;SDS011;40438;52.992;18.604;2024-03-02T09:31:31;34.55;;;14.85;;
54539;SDS011;40438;52.992;18.604;2024-03-02T09:33:57;33.63;;;15.35;;
54539;SDS011;40438;52.992;18.604;2024-03-02T09:36:23;38.75;;;17.23;;
54539;SDS011;40438;52.992;18.604;2024-03-02T09:38:49;37.00;;;15.77;;
54539;SDS011;40438;52.992;18.604;2024-03-02T09:41:15;41.10;;;15.85;;
54539;SDS011;40438;52.992;18.604;2024-03-02T09:43:41;38.83;;;16.02;;
54539;SDS011;40438;52.992;18.604;2024-03-02T09:46:09;40.13;;;16.73;;
54539;SDS011;40438;52.992;18.604;2024-03-02T09:48:35;37.72;;;15.45;;
54539;SDS011;40438;52.992;18.604;2024-03-02T09:51:01;36.35;;;15.52;;
54539;SDS011;40438;52.992;18.604;2024-03-02T09:53:27;32.40;;;15.75;;
54539;SDS011;40438;52.992;18.604;2024-03-02T09:55:56;35.83;;;16.35;;
54539;SDS011;40438;52.992;18.604;2024-03-02T09:58:22;34.58;;;15.32;;
54539;SDS011;40438;52.992;18.604;2024-03-02T10:00:48;36.97;;;16.05;;
54539;SDS011;40438;52.992;18.604;2024-03-02T10:03:15;35.95;;;16.65;;
54539;SDS011;40438;52.992;18.604;2024-03-02T10:05:43;35.38;;;14.77;;
54539;SDS011;40438;52.992;18.604;2024-03-02T10:08:09;34.38;;;16.08;;
54539;SDS011;40438;52.992;18.604;2024-03-02T10:10:36;33.75;;;15.25;;
54539;SDS011;40438;52.992;18.604;2024-03-02T10:13:03;35.65;;;16.52;;
54539;SDS011;40438;52.992;18.604;2024-03-02T10:15:30;35.60;;;16.80;;
54539;SDS011;40438;52.992;18.604;2024-03-02T10:17:55;37.92;;;16.42;;
54539;SDS011;40438;52.992;18.604;2024-03-02T10:20:23;38.45;;;16.67;;
54539;SDS011;40438;52.992;18.604;2024-03-02T10:22:50;36.67;;;15.38;;
54539;SDS011;40438;52.992;18.604;2024-03-02T10:25:27;36.92;;;16.58;;
54539;SDS011;40438;52.992;18.604;2024-03-02T10:27:56;39.40;;;17.75;;
54539;SDS011;40438;52.992;18.604;2024-03-02T10:30:22;34.08;;;16.50;;
54539;SDS011;40438;52.992;18.604;2024-03-02T10:32:48;36.78;;;17.30;;
54539;SDS011;40438;52.992;18.604;2024-03-02T10:35:14;36.50;;;16.13;;
54539;SDS011;40438;52.992;18.604;2024-03-02T10:37:42;37.28;;;17.33;;
54539;SDS011;40438;52.992;18.604;2024-03-02T10:40:09;44.28;;;17.98;;
54539;SDS011;40438;52.992;18.604;2024-03-02T10:42:36;40.50;;;17.63;;
54539;SDS011;40438;52.992;18.604;2024-03-02T10:45:04;44.42;;;18.15;;
54539;SDS011;40438;52.992;18.604;2024-03-02T10:47:31;36.25;;;16.75;;
54539;SDS011;40438;52.992;18.604;2024-03-02T10:50:01;49.10;;;18.13;;
54539;SDS011;40438;52.992;18.604;2024-03-02T10:52:30;38.58;;;16.83;;
54539;SDS011;40438;52.992;18.604;2024-03-02T10:54:57;38.63;;;17.92;;
54539;SDS011;40438;52.992;18.604;2024-03-02T10:57:23;40.90;;;16.90;;
54539;SDS011;40438;52.992;18.604;2024-03-02T10:59:52;35.72;;;16.60;;
54539;SDS011;40438;52.992;18.604;2024-03-02T11:02:21;43.05;;;18.75;;
54539;SDS011;40438;52.992;18.604;2024-03-02T11:04:47;43.58;;;17.85;;
54539;SDS011;40438;52.992;18.604;2024-03-02T11:07:15;38.67;;;16.80;;
54539;SDS011;40438;52.992;18.604;2024-03-02T11:09:45;47.45;;;18.65;;
54539;SDS011;40438;52.992;18.604;2024-03-02T11:12:23;40.08;;;16.60;;
54539;SDS011;40438;52.992;18.604;2024-03-02T11:14:53;38.53;;;18.75;;
54539;SDS011;40438;52.992;18.604;2024-03-02T11:17:21;40.47;;;18.55;;
54539;SDS011;40438;52.992;18.604;2024-03-02T11:19:48;37.97;;;17.73;;
54539;SDS011;40438;52.992;18.604;2024-03-02T11:22:15;36.20;;;17.83;;
54539;SDS011;40438;52.992;18.604;2024-03-02T11:24:48;39.75;;;19.48;;
54539;SDS011;40438;52.992;18.604;2024-03-02T11:27:15;51.03;;;18.27;;
54539;SDS011;40438;52.992;18.604;2024-03-02T11:33:22;42.25;;;17.75;;
54539;SDS011;40438;52.992;18.604;2024-03-02T11:35:49;40.97;;;17.85;;
54539;SDS011;40438;52.992;18.604;2024-03-02T11:38:15;44.53;;;18.55;;
54539;SDS011;40438;52.992;18.604;2024-03-02T11:40:41;41.90;;;17.70;;
54539;SDS011;40438;52.992;18.604;2024-03-02T11:43:06;40.40;;;18.17;;
54539;SDS011;40438;52.992;18.604;2024-03-02T11:45:32;40.38;;;17.70;;
54539;SDS011;40438;52.992;18.604;2024-03-02T11:48:00;37.80;;;17.40;;
54539;SDS011;40438;52.992;18.604;2024-03-02T11:50:29;40.85;;;17.55;;
54539;SDS011;40438;52.992;18.604;2024-03-02T11:52:55;43.75;;;18.17;;
54539;SDS011;40438;52.992;18.604;2024-03-02T11:55:21;41.70;;;18.75;;
54539;SDS011;40438;52.992;18.604;2024-03-02T11:57:48;43.33;;;20.20;;
54539;SDS011;40438;52.992;18.604;2024-03-02T12:00:16;43.63;;;19.17;;
54539;SDS011;40438;52.992;18.604;2024-03-02T12:02:42;45.40;;;19.42;;
54539;SDS011;40438;52.992;18.604;2024-03-02T12:05:10;39.50;;;18.27;;
54539;SDS011;40438;52.992;18.604;2024-03-02T12:07:35;47.58;;;21.25;;
54539;SDS011;40438;52.992;18.604;2024-03-02T12:10:01;53.90;;;26.52;;
54539;SDS011;40438;52.992;18.604;2024-03-02T12:12:27;45.22;;;23.00;;
54539;SDS011;40438;52.992;18.604;2024-03-02T12:14:53;62.70;;;26.70;;
54539;SDS011;40438;52.992;18.604;2024-03-02T12:17:19;47.78;;;21.13;;
54539;SDS011;40438;52.992;18.604;2024-03-02T12:19:45;45.97;;;19.88;;
54539;SDS011;40438;52.992;18.604;2024-03-02T12:22:12;43.72;;;20.23;;
54539;SDS011;40438;52.992;18.604;2024-03-02T12:24:37;45.72;;;20.80;;
54539;SDS011;40438;52.992;18.604;2024-03-02T12:27:03;45.47;;;19.67;;
54539;SDS011;40438;52.992;18.604;2024-03-02T12:29:30;48.40;;;22.75;;
54539;SDS011;40438;52.992;18.604;2024-03-02T12:31:56;47.58;;;20.88;;
54539;SDS011;40438;52.992;18.604;2024-03-02T12:34:22;47.03;;;20.85;;
54539;SDS011;40438;52.992;18.604;2024-03-02T12:36:48;53.08;;;25.25;;
54539;SDS011;40438;52.992;18.604;2024-03-02T12:39:15;53.75;;;25.10;;
54539;SDS011;40438;52.992;18.604;2024-03-02T12:41:41;49.92;;;21.20;;
54539;SDS011;40438;52.992;18.604;2024-03-02T12:44:07;42.78;;;19.38;;
54539;SDS011;40438;52.992;18.604;2024-03-02T12:46:33;99.63;;;45.65;;
54539;SDS011;40438;52.992;18.604;2024-03-02T12:49:04;56.65;;;28.67;;
54539;SDS011;40438;52.992;18.604;2024-03-02T12:51:32;50.47;;;21.17;;
54539;SDS011;40438;52.992;18.604;2024-03-02T12:53:58;57.03;;;30.00;;
54539;SDS011;40438;52.992;18.604;2024-03-02T12:56:25;50.38;;;26.25;;
54539;SDS011;40438;52.992;18.604;2024-03-02T12:58:53;48.38;;;20.35;;
54539;SDS011;40438;52.992;18.604;2024-03-02T13:01:19;45.83;;;22.20;;
54539;SDS011;40438;52.992;18.604;2024-03-02T13:03:44;45.90;;;19.88;;
54539;SDS011;40438;52.992;18.604;2024-03-02T13:06:10;44.70;;;19.20;;
54539;SDS011;40438;52.992;18.604;2024-03-02T13:08:36;44.13;;;19.55;;
54539;SDS011;40438;52.992;18.604;2024-03-02T13:11:02;41.22;;;19.30;;
54539;SDS011;40438;52.992;18.604;2024-03-02T13:13:31;44.78;;;20.13;;
54539;SDS011;40438;52.992;18.604;2024-03-02T13:15:58;44.70;;;19.40;;
54539;SDS011;40438;52.992;18.604;2024-03-02T13:18:23;42.45;;;18.55;;
54539;SDS011;40438;52.992;18.604;2024-03-02T13:20:49;37.95;;;17.98;;
54539;SDS011;40438;52.992;18.604;2024-03-02T13:23:15;41.45;;;17.52;;
54539;SDS011;40438;52.992;18.604;2024-03-02T13:25:41;39.20;;;17.55;;
54539;SDS011;40438;52.992;18.604;2024-03-02T13:28:07;48.83;;;18.15;;
54539;SDS011;40438;52.992;18.604;2024-03-02T13:30:34;43.20;;;18.33;;
54539;SDS011;40438;52.992;18.604;2024-03-02T13:33:00;44.47;;;18.30;;
54539;SDS011;40438;52.992;18.604;2024-03-02T13:35:25;45.22;;;20.73;;
54539;SDS011;40438;52.992;18.604;2024-03-02T13:37:51;47.88;;;20.95;;
54539;SDS011;40438;52.992;18.604;2024-03-02T13:40:17;44.67;;;21.55;;
54539;SDS011;40438;52.992;18.604;2024-03-02T13:42:43;45.75;;;22.45;;
54539;SDS011;40438;52.992;18.604;2024-03-02T13:45:08;45.00;;;19.75;;
54539;SDS011;40438;52.992;18.604;2024-03-02T13:47:36;42.38;;;18.30;;
54539;SDS011;40438;52.992;18.604;2024-03-02T13:50:01;44.17;;;18.75;;
54539;SDS011;40438;52.992;18.604;2024-03-02T13:52:27;38.22;;;17.90;;
54539;SDS011;40438;52.992;18.604;2024-03-02T13:54:53;41.47;;;17.58;;
54539;SDS011;40438;52.992;18.604;2024-03-02T13:57:19;39.83;;;18.75;;
54539;SDS011;40438;52.992;18.604;2024-03-02T13:59:45;45.40;;;18.55;;
54539;SDS011;40438;52.992;18.604;2024-03-02T14:02:11;35.58;;;17.27;;
54539;SDS011;40438;52.992;18.604;2024-03-02T14:04:39;41.92;;;18.38;;
54539;SDS011;40438;52.992;18.604;2024-03-02T14:07:05;41.30;;;17.73;;